sensor_id;sensor_type;location;lat;lon;timestamp;pressure;altitude;pressure_sealevel;temperature;humidity
3590;BME280;1809;48.470;9.226;2023-06-22T00:00:38;147055.09;;;21.16;100.00
3590;BME280;1809;48.470;9.226;2023-06-22T00:03:07;148102.59;;;21.11;100.00
3590;BME280;1809;48.470;9.226;2023-06-22T00:05:32;148435.09;;;21.03;100.00
3590;BME280;1809;48.470;9.226;2023-06-22T00:07:57;149133.03;;;20.99;100.00
3590;BME280;1809;48.470;9.226;2023-06-22T00:10:23;149497.41;;;21.04;100.00
3590;BME280;1809;48.470;9.226;2023-06-22T00:12:48;149157.59;;;21.09;100.00
3590;BME280;1809;48.470;9.226;2023-06-22T00:15:13;148441.19;;;21.05;100.00
3590;BME280;1809;48.470;9.226;2023-06-22T00:17:38;148770.06;;;20.95;100.00
3590;BME280;1809;48.470;9.226;2023-06-22T00:20:04;149817.53;;;20.90;100.00
3590;BME280;1809;48.470;9.226;2023-06-22T00:22:31;150870.13;;;20.87;100.00
3590;BME280;1809;48.470;9.226;2023-06-22T00:24:56;151557.06;;;20.79;100.00
3590;BME280;1809;48.470;9.226;2023-06-22T00:27:22;152251.41;;;20.74;100.00
3590;BME280;1809;48.470;9.226;2023-06-22T00:29:47;152582.28;;;20.65;100.00
3590;BME280;1809;48.470;9.226;2023-06-22T00:32:12;153636.41;;;20.62;100.00
3590;BME280;1809;48.470;9.226;2023-06-22T00:34:38;155021.44;;;20.51;100.00
3590;BME280;1809;48.470;9.226;2023-06-22T00:37:03;156077.19;;;20.49;100.00
3590;BME280;1809;48.470;9.226;2023-06-22T00:39:28;156425.75;;;20.47;100.00
3590;BME280;1809;48.470;9.226;2023-06-22T00:41:54;156429.63;;;20.48;100.00
3590;BME280;1809;48.470;9.226;2023-06-22T00:44:19;156429.63;;;20.48;100.00
3590;BME280;1809;48.470;9.226;2023-06-22T00:46:45;156415.44;;;20.43;100.00
3590;BME280;1809;48.470;9.226;2023-06-22T00:49:10;156749.81;;;20.35;100.00
3590;BME280;1809;48.470;9.226;2023-06-22T00:51:37;157435.22;;;20.26;100.00
3590;BME280;1809;48.470;9.226;2023-06-22T00:54:04;157786.25;;;20.25;100.00
3590;BME280;1809;48.470;9.226;2023-06-22T00:56:30;158140.00;;;20.25;100.00
3590;BME280;1809;48.470;9.226;2023-06-22T00:58:57;157450.75;;;20.32;100.00
3590;BME280;1809;48.470;9.226;2023-06-22T01:01:24;156735.66;;;20.29;100.00
3590;BME280;1809;48.470;9.226;2023-06-22T01:03:50;157072.47;;;20.23;100.00
3590;BME280;1809;48.470;9.226;2023-06-22T01:06:20;157404.09;;;20.14;100.00
3590;BME280;1809;48.470;9.226;2023-06-22T01:08:52;158436.38;;;20.03;100.00
3590;BME280;1809;48.470;9.226;2023-06-22T01:11:53;159481.75;;;19.97;100.00
3590;BME280;1809;48.470;9.226;2023-06-22T01:14:28;159834.31;;;19.96;100.00
3590;BME280;1809;48.470;9.226;2023-06-22T01:16:59;159814.56;;;19.88;100.00
3590;BME280;1809;48.470;9.226;2023-06-22T01:22:30;159797.47;;;19.81;100.00
3590;BME280;1809;48.470;9.226;2023-06-22T01:25:15;159767.22;;;19.70;100.00
3590;BME280;1809;48.470;9.226;2023-06-22T01:30:41;159740.91;;;19.60;100.00
3590;BME280;1809;48.470;9.226;2023-06-22T01:33:10;159735.66;;;19.58;100.00
3590;BME280;1809;48.470;9.226;2023-06-22T01:35:37;159748.81;;;19.63;100.00
3590;BME280;1809;48.470;9.226;2023-06-22T01:38:04;159734.34;;;19.57;100.00
3590;BME280;1809;48.470;9.226;2023-06-22T01:40:31;159717.25;;;19.51;100.00
3590;BME280;1809;48.470;9.226;2023-06-22T01:42:57;159693.59;;;19.42;100.00
3590;BME280;1809;48.470;9.226;2023-06-22T01:45:23;159677.75;;;19.36;100.00
3590;BME280;1809;48.470;9.226;2023-06-22T01:47:49;159672.47;;;19.33;100.00
3590;BME280;1809;48.470;9.226;2023-06-22T01:50:15;159688.34;;;19.40;100.00
3590;BME280;1809;48.470;9.226;2023-06-22T01:52:40;159702.78;;;19.45;100.00
3590;BME280;1809;48.470;9.226;2023-06-22T01:55:06;159698.81;;;19.44;100.00
3590;BME280;1809;48.470;9.226;2023-06-22T01:57:33;159685.63;;;19.39;100.00
3590;BME280;1809;48.470;9.226;2023-06-22T02:00:07;159669.88;;;19.32;100.00
3590;BME280;1809;48.470;9.226;2023-06-22T02:02:45;159651.44;;;19.25;100.00
3590;BME280;1809;48.470;9.226;2023-06-22T02:05:18;159643.56;;;19.22;100.00
3590;BME280;1809;48.470;9.226;2023-06-22T02:07:47;159631.69;;;19.18;100.00
3590;BME280;1809;48.470;9.226;2023-06-22T02:10:15;159614.66;;;19.11;100.00
3590;BME280;1809;48.470;9.226;2023-06-22T02:12:43;159596.22;;;19.04;100.00
3590;BME280;1809;48.470;9.226;2023-06-22T02:15:10;159598.88;;;19.05;100.00
3590;BME280;1809;48.470;9.226;2023-06-22T02:17:38;159575.16;;;18.96;100.00
3590;BME280;1809;48.470;9.226;2023-06-22T02:20:03;159577.81;;;18.97;100.00
3590;BME280;1809;48.470;9.226;2023-06-22T02:22:32;159584.38;;;19.00;100.00
3590;BME280;1809;48.470;9.226;2023-06-22T02:24:58;159602.78;;;19.07;100.00
3590;BME280;1809;48.470;9.226;2023-06-22T02:27:23;159569.94;;;18.94;100.00
3590;BME280;1809;48.470;9.226;2023-06-22T02:29:49;159556.81;;;18.89;100.00
3590;BME280;1809;48.470;9.226;2023-06-22T02:32:14;159535.75;;;18.81;100.00
3590;BME280;1809;48.470;9.226;2023-06-22T02:34:42;159522.63;;;18.76;100.00
3590;BME280;1809;48.470;9.226;2023-06-22T02:37:08;159510.75;;;18.71;100.00
3590;BME280;1809;48.470;9.226;2023-06-22T02:39:36;159505.53;;;18.69;100.00
3590;BME280;1809;48.470;9.226;2023-06-22T02:42:02;159517.38;;;18.74;100.00
3590;BME280;1809;48.470;9.226;2023-06-22T02:44:27;159500.28;;;18.67;100.00
3590;BME280;1809;48.470;9.226;2023-06-22T02:46:53;159480.56;;;18.60;100.00
3590;BME280;1809;48.470;9.226;2023-06-22T02:49:19;159462.13;;;18.53;100.00
3590;BME280;1809;48.470;9.226;2023-06-22T02:51:47;159454.25;;;18.50;100.00
3590;BME280;1809;48.470;9.226;2023-06-22T02:54:12;159459.53;;;18.52;100.00
3590;BME280;1809;48.470;9.226;2023-06-22T02:56:38;159447.63;;;18.47;100.00
3590;BME280;1809;48.470;9.226;2023-06-22T02:59:06;159443.72;;;18.46;100.00
3590;BME280;1809;48.470;9.226;2023-06-22T03:01:31;159433.19;;;18.42;100.00
3590;BME280;1809;48.470;9.226;2023-06-22T03:04:03;159425.31;;;18.39;100.00
3590;BME280;1809;48.470;9.226;2023-06-22T03:06:29;159425.31;;;18.39;100.00
3590;BME280;1809;48.470;9.226;2023-06-22T03:08:59;159412.19;;;18.34;100.00
3590;BME280;1809;48.470;9.226;2023-06-22T03:11:25;159399.03;;;18.28;100.00
3590;BME280;1809;48.470;9.226;2023-06-22T03:13:50;159391.16;;;18.25;100.00
3590;BME280;1809;48.470;9.226;2023-06-22T03:16:17;159393.78;;;18.26;100.00
3590;BME280;1809;48.470;9.226;2023-06-22T03:18:43;159406.91;;;18.32;100.00
3590;BME280;1809;48.470;9.226;2023-06-22T03:21:08;159433.19;;;18.42;100.00
3590;BME280;1809;48.470;9.226;2023-06-22T03:23:34;159425.31;;;18.39;100.00
3590;BME280;1809;48.470;9.226;2023-06-22T03:25:59;159401.66;;;18.30;100.00
3590;BME280;1809;48.470;9.226;2023-06-22T03:28:24;159393.78;;;18.26;100.00
3590;BME280;1809;48.470;9.226;2023-06-22T03:30:49;159385.91;;;18.23;100.00
3590;BME280;1809;48.470;9.226;2023-06-22T03:33:15;159393.78;;;18.26;100.00
3590;BME280;1809;48.470;9.226;2023-06-22T03:35:40;159393.78;;;18.26;100.00
3590;BME280;1809;48.470;9.226;2023-06-22T03:38:05;159385.91;;;18.23;100.00
3590;BME280;1809;48.470;9.226;2023-06-22T03:40:31;159388.50;;;18.24;100.00
3590;BME280;1809;48.470;9.226;2023-06-22T03:42:56;159396.44;;;18.27;100.00
3590;BME280;1809;48.470;9.226;2023-06-22T03:45:21;159399.03;;;18.28;100.00
3590;BME280;1809;48.470;9.226;2023-06-22T03:47:46;159414.78;;;18.35;100.00
3590;BME280;1809;48.470;9.226;2023-06-22T03:50:12;159418.75;;;18.36;100.00
3590;BME280;1809;48.470;9.226;2023-06-22T03:52:38;159443.72;;;18.46;100.00
3590;BME280;1809;48.470;9.226;2023-06-22T03:55:04;159454.25;;;18.50;100.00
3590;BME280;1809;48.470;9.226;2023-06-22T03:57:30;159475.31;;;18.58;100.00
3590;BME280;1809;48.470;9.226;2023-06-22T03:59:56;159505.53;;;18.69;100.00
3590;BME280;1809;48.470;9.226;2023-06-22T04:02:22;159542.34;;;18.84;100.00
3590;BME280;1809;48.470;9.226;2023-06-22T04:04:48;159569.94;;;18.94;100.00
3590;BME280;1809;48.470;9.226;2023-06-22T04:07:13;159625.13;;;19.15;100.00
3590;BME280;1809;48.470;9.226;2023-06-22T04:09:38;159718.56;;;19.51;100.00
3590;BME280;1809;48.470;9.226;2023-06-22T04:12:04;159759.34;;;19.67;100.00
3590;BME280;1809;48.470;9.226;2023-06-22T04:14:29;159525.06;;;20.14;100.00
3590;BME280;1809;48.470;9.226;2023-06-22T04:16:55;152196.41;;;20.52;100.00
3590;BME280;1809;48.470;9.226;2023-06-22T04:19:20;143806.03;;;20.85;100.00
3590;BME280;1809;48.470;9.226;2023-06-22T04:21:45;129067.84;;;21.06;100.00
3590;BME280;1809;48.470;9.226;2023-06-22T04:24:13;109815.59;;;21.16;100.00
3590;BME280;1809;48.470;9.226;2023-06-22T04:26:39;93497.53;;;21.62;100.00
3590;BME280;1809;48.470;9.226;2023-06-22T04:29:06;73092.22;;;22.22;100.00
3590;BME280;1809;48.470;9.226;2023-06-22T04:31:34;40365.63;;;22.54;100.00
3590;BME280;1809;48.470;9.226;2023-06-22T04:34:05;3164.94;;;22.77;100.00
3590;BME280;1809;48.470;9.226;2023-06-22T04:36:38;-16792.13;;;22.41;100.00
3590;BME280;1809;48.470;9.226;2023-06-22T04:39:06;-16808.47;;;23.00;100.00
3590;BME280;1809;48.470;9.226;2023-06-22T04:41:32;-16825.78;;;23.63;100.00
3590;BME280;1809;48.470;9.226;2023-06-22T04:44:11;-16832.63;;;23.87;100.00
3590;BME280;1809;48.470;9.226;2023-06-22T04:46:37;-16852.00;;;24.57;100.00
3590;BME280;1809;48.470;9.226;2023-06-22T04:49:07;-16846.69;;;24.38;100.00
3590;BME280;1809;48.470;9.226;2023-06-22T04:51:39;-16860.50;;;24.88;100.00
3590;BME280;1809;48.470;9.226;2023-06-22T04:54:06;-16862.31;;;24.95;100.00
3590;BME280;1809;48.470;9.226;2023-06-22T04:56:32;-16886.97;;;25.84;100.00
3590;BME280;1809;48.470;9.226;2023-06-22T04:58:57;-16904.69;;;26.48;100.00
3590;BME280;1809;48.470;9.226;2023-06-22T05:01:23;-16916.50;;;26.91;100.00
3590;BME280;1809;48.470;9.226;2023-06-22T05:03:49;-16905.66;;;26.52;100.00
3590;BME280;1809;48.470;9.226;2023-06-22T05:06:14;-16922.22;;;27.12;100.00
3590;BME280;1809;48.470;9.226;2023-06-22T05:08:40;-16927.09;;;27.30;100.00
3590;BME280;1809;48.470;9.226;2023-06-22T05:11:06;-16910.94;;;26.71;100.00
3590;BME280;1809;48.470;9.226;2023-06-22T05:13:32;-16944.47;;;27.93;100.00
3590;BME280;1809;48.470;9.226;2023-06-22T05:15:57;-16948.38;;;28.07;100.00
3590;BME280;1809;48.470;9.226;2023-06-22T05:18:30;-16949.50;;;28.11;100.00
3590;BME280;1809;48.470;9.226;2023-06-22T05:20:57;-16928.34;;;27.34;100.00
3590;BME280;1809;48.470;9.226;2023-06-22T05:23:23;-16947.41;;;28.03;100.00
3590;BME280;1809;48.470;9.226;2023-06-22T05:25:48;-16961.03;;;28.53;100.00
3590;BME280;1809;48.470;9.226;2023-06-22T05:28:13;-16950.88;;;28.16;100.00
3590;BME280;1809;48.470;9.226;2023-06-22T05:30:39;-16952.56;;;28.22;100.00
3590;BME280;1809;48.470;9.226;2023-06-22T05:33:04;-16963.69;;;28.62;100.00
3590;BME280;1809;48.470;9.226;2023-06-22T05:35:30;-16950.34;;;28.14;100.00
3590;BME280;1809;48.470;9.226;2023-06-22T05:37:55;-16942.25;;;27.85;100.00
3590;BME280;1809;48.470;9.226;2023-06-22T05:40:21;-16955.06;;;28.31;100.00
3590;BME280;1809;48.470;9.226;2023-06-22T05:42:46;-16945.59;;;27.97;100.00
3590;BME280;1809;48.470;9.226;2023-06-22T05:45:12;-16962.28;;;28.57;100.00
3590;BME280;1809;48.470;9.226;2023-06-22T05:47:38;-16959.50;;;28.47;100.00
3590;BME280;1809;48.470;9.226;2023-06-22T05:50:03;-16958.41;;;28.43;100.00
3590;BME280;1809;48.470;9.226;2023-06-22T05:52:32;-16963.69;;;28.62;100.00
3590;BME280;1809;48.470;9.226;2023-06-22T05:54:57;-16963.41;;;28.61;100.00
3590;BME280;1809;48.470;9.226;2023-06-22T05:57:22;-16974.09;;;29.00;100.00
3590;BME280;1809;48.470;9.226;2023-06-22T05:59:48;-16979.81;;;29.21;100.00
3590;BME280;1809;48.470;9.226;2023-06-22T06:02:13;-16985.66;;;29.42;100.00
3590;BME280;1809;48.470;9.226;2023-06-22T06:04:39;-16973.69;;;28.99;100.00
3590;BME280;1809;48.470;9.226;2023-06-22T06:07:04;-16957.56;;;28.40;100.00
3590;BME280;1809;48.470;9.226;2023-06-22T06:09:31;-16958.66;;;28.44;100.00
3590;BME280;1809;48.470;9.226;2023-06-22T06:11:56;-16972.72;;;28.95;100.00
3590;BME280;1809;48.470;9.226;2023-06-22T06:14:21;-16959.50;;;28.47;100.00
3590;BME280;1809;48.470;9.226;2023-06-22T06:16:48;-16954.78;;;28.30;100.00
3590;BME280;1809;48.470;9.226;2023-06-22T06:19:14;-16968.00;;;28.78;100.00
3590;BME280;1809;48.470;9.226;2023-06-22T06:21:39;-16982.03;;;29.29;100.00
3590;BME280;1809;48.470;9.226;2023-06-22T06:24:05;-17022.19;;;30.75;100.00
3590;BME280;1809;48.470;9.226;2023-06-22T06:26:30;-17002.59;;;30.04;100.00
3590;BME280;1809;48.470;9.226;2023-06-22T06:28:58;-17012.03;;;30.38;100.00
3590;BME280;1809;48.470;9.226;2023-06-22T06:31:24;-16999.53;;;29.93;100.00
3590;BME280;1809;48.470;9.226;2023-06-22T06:33:49;-17017.03;;;30.56;100.00
3590;BME280;1809;48.470;9.226;2023-06-22T06:36:15;-17038.56;;;31.34;100.00
3590;BME280;1809;48.470;9.226;2023-06-22T06:38:41;-17026.19;;;30.89;100.00
3590;BME280;1809;48.470;9.226;2023-06-22T06:41:07;-17030.94;;;31.07;100.00
3590;BME280;1809;48.470;9.226;2023-06-22T06:43:32;-17046.75;;;31.64;100.00
3590;BME280;1809;48.470;9.226;2023-06-22T06:45:57;-17032.59;;;31.13;100.00
3590;BME280;1809;48.470;9.226;2023-06-22T06:48:23;-17054.94;;;31.94;100.00
3590;BME280;1809;48.470;9.226;2023-06-22T06:50:48;-17047.03;;;31.65;100.00
3590;BME280;1809;48.470;9.226;2023-06-22T06:53:14;-17038.84;;;31.35;100.00
3590;BME280;1809;48.470;9.226;2023-06-22T06:55:39;-17038.16;;;31.33;100.00
3590;BME280;1809;48.470;9.226;2023-06-22T06:58:04;-17034.41;;;31.19;100.00
3590;BME280;1809;48.470;9.226;2023-06-22T07:00:34;-17030.50;;;31.05;100.00
3590;BME280;1809;48.470;9.226;2023-06-22T07:03:01;-17041.34;;;31.44;100.00
3590;BME280;1809;48.470;9.226;2023-06-22T07:05:26;-17030.78;;;31.06;100.00
3590;BME280;1809;48.470;9.226;2023-06-22T07:07:51;-17037.03;;;31.29;100.00
3590;BME280;1809;48.470;9.226;2023-06-22T07:10:18;-17028.84;;;30.99;100.00
3590;BME280;1809;48.470;9.226;2023-06-22T07:12:43;-17032.88;;;31.14;100.00
3590;BME280;1809;48.470;9.226;2023-06-22T07:15:10;-17033.16;;;31.15;100.00
3590;BME280;1809;48.470;9.226;2023-06-22T07:17:36;-17053.97;;;31.90;100.00
3590;BME280;1809;48.470;9.226;2023-06-22T07:20:02;-17062.97;;;32.23;100.00
3590;BME280;1809;48.470;9.226;2023-06-22T07:22:33;-17086.13;;;33.08;100.00
3590;BME280;1809;48.470;9.226;2023-06-22T07:24:58;-17072.28;;;32.57;100.00
3590;BME280;1809;48.470;9.226;2023-06-22T07:27:24;-17058.28;;;32.06;100.00
3590;BME280;1809;48.470;9.226;2023-06-22T07:29:49;-17060.06;;;32.13;100.00
3590;BME280;1809;48.470;9.226;2023-06-22T07:32:15;-17062.28;;;32.21;100.00
3590;BME280;1809;48.470;9.226;2023-06-22T07:34:40;-17051.59;;;31.82;100.00
3590;BME280;1809;48.470;9.226;2023-06-22T07:37:06;-17056.19;;;31.98;100.00
3590;BME280;1809;48.470;9.226;2023-06-22T07:39:31;-17058.13;;;32.06;100.00
3590;BME280;1809;48.470;9.226;2023-06-22T07:41:57;-17055.50;;;31.96;100.00
3590;BME280;1809;48.470;9.226;2023-06-22T07:44:22;-17054.25;;;31.91;100.00
3590;BME280;1809;48.470;9.226;2023-06-22T07:46:47;-17029.25;;;31.01;100.00
3590;BME280;1809;48.470;9.226;2023-06-22T07:49:13;-17047.44;;;31.67;100.00
3590;BME280;1809;48.470;9.226;2023-06-22T07:51:38;-17053.28;;;31.88;100.00
3590;BME280;1809;48.470;9.226;2023-06-22T07:54:04;-17056.59;;;32.00;100.00
3590;BME280;1809;48.470;9.226;2023-06-22T07:56:29;-17064.78;;;32.30;100.00
3590;BME280;1809;48.470;9.226;2023-06-22T07:58:55;-17057.84;;;32.05;100.00
3590;BME280;1809;48.470;9.226;2023-06-22T08:01:23;-17047.72;;;31.68;100.00
3590;BME280;1809;48.470;9.226;2023-06-22T08:03:49;-17054.25;;;31.91;100.00
3590;BME280;1809;48.470;9.226;2023-06-22T08:06:14;-17048.41;;;31.70;100.00
3590;BME280;1809;48.470;9.226;2023-06-22T08:08:39;-17067.28;;;32.39;100.00
3590;BME280;1809;48.470;9.226;2023-06-22T08:11:05;-17086.28;;;33.08;100.00
3590;BME280;1809;48.470;9.226;2023-06-22T08:13:31;-17075.59;;;32.69;100.00
3590;BME280;1809;48.470;9.226;2023-06-22T08:15:56;-17084.88;;;33.03;100.00
3590;BME280;1809;48.470;9.226;2023-06-22T08:18:22;-17104.97;;;33.76;100.00
3590;BME280;1809;48.470;9.226;2023-06-22T08:20:47;-17099.72;;;33.57;100.00
3590;BME280;1809;48.470;9.226;2023-06-22T08:23:12;-17086.13;;;33.08;100.00
3590;BME280;1809;48.470;9.226;2023-06-22T08:25:38;-17061.19;;;32.17;100.00
3590;BME280;1809;48.470;9.226;2023-06-22T08:28:03;-17034.53;;;31.20;100.00
3590;BME280;1809;48.470;9.226;2023-06-22T08:30:29;-17032.19;;;31.11;100.00
3590;BME280;1809;48.470;9.226;2023-06-22T08:32:55;-17004.25;;;30.10;100.00
3590;BME280;1809;48.470;9.226;2023-06-22T08:35:22;-16996.47;;;29.81;100.00
3590;BME280;1809;48.470;9.226;2023-06-22T08:37:47;-16977.59;;;29.13;100.00
3590;BME280;1809;48.470;9.226;2023-06-22T08:40:18;-16966.03;;;28.71;100.00
3590;BME280;1809;48.470;9.226;2023-06-22T08:42:45;-16968.69;;;28.80;100.00
3590;BME280;1809;48.470;9.226;2023-06-22T08:45:10;-16975.63;;;29.06;100.00
3590;BME280;1809;48.470;9.226;2023-06-22T08:47:36;-16982.03;;;29.29;100.00
3590;BME280;1809;48.470;9.226;2023-06-22T08:50:01;-16982.88;;;29.32;100.00
3590;BME280;1809;48.470;9.226;2023-06-22T08:52:30;-16994.81;;;29.75;100.00
3590;BME280;1809;48.470;9.226;2023-06-22T08:54:55;-16994.41;;;29.74;100.00
3590;BME280;1809;48.470;9.226;2023-06-22T08:57:21;-17004.25;;;30.10;100.00
3590;BME280;1809;48.470;9.226;2023-06-22T08:59:46;-16993.28;;;29.70;100.00
3590;BME280;1809;48.470;9.226;2023-06-22T09:02:12;-16988.97;;;29.54;100.00
3590;BME280;1809;48.470;9.226;2023-06-22T09:04:37;-16987.59;;;29.49;100.00
3590;BME280;1809;48.470;9.226;2023-06-22T09:07:03;-16995.66;;;29.78;100.00
3590;BME280;1809;48.470;9.226;2023-06-22T09:09:29;-17002.47;;;30.03;100.00
3590;BME280;1809;48.470;9.226;2023-06-22T09:11:54;-17003.00;;;30.05;100.00
3590;BME280;1809;48.470;9.226;2023-06-22T09:14:20;-17005.09;;;30.13;100.00
3590;BME280;1809;48.470;9.226;2023-06-22T09:16:45;-17007.88;;;30.23;100.00
3590;BME280;1809;48.470;9.226;2023-06-22T09:19:11;-17017.31;;;30.57;100.00
3590;BME280;1809;48.470;9.226;2023-06-22T09:21:36;-17018.44;;;30.61;100.00
3590;BME280;1809;48.470;9.226;2023-06-22T09:24:02;-17016.75;;;30.55;100.00
3590;BME280;1809;48.470;9.226;2023-06-22T09:26:27;-17012.31;;;30.39;100.00
3590;BME280;1809;48.470;9.226;2023-06-22T09:28:53;-17007.31;;;30.21;100.00
3590;BME280;1809;48.470;9.226;2023-06-22T09:31:18;-17013.28;;;30.43;100.00
3590;BME280;1809;48.470;9.226;2023-06-22T09:33:53;-17015.66;;;30.51;100.00
3590;BME280;1809;48.470;9.226;2023-06-22T09:36:22;-17024.69;;;30.84;100.00
3590;BME280;1809;48.470;9.226;2023-06-22T09:38:48;-17016.06;;;30.53;100.00
3590;BME280;1809;48.470;9.226;2023-06-22T09:41:13;-17017.31;;;30.57;100.00
3590;BME280;1809;48.470;9.226;2023-06-22T09:43:39;-17017.47;;;30.58;100.00
3590;BME280;1809;48.470;9.226;2023-06-22T09:46:04;-17012.88;;;30.41;100.00
3590;BME280;1809;48.470;9.226;2023-06-22T09:48:30;-17009.81;;;30.30;100.00
3590;BME280;1809;48.470;9.226;2023-06-22T09:50:56;-17024.25;;;30.82;100.00
3590;BME280;1809;48.470;9.226;2023-06-22T09:53:21;-17030.38;;;31.05;100.00
3590;BME280;1809;48.470;9.226;2023-06-22T09:55:47;-17037.16;;;31.29;100.00
3590;BME280;1809;48.470;9.226;2023-06-22T09:58:12;-17046.47;;;31.63;100.00
3590;BME280;1809;48.470;9.226;2023-06-22T10:00:37;-17057.00;;;32.02;100.00
3590;BME280;1809;48.470;9.226;2023-06-22T10:03:03;-17065.91;;;32.34;100.00
3590;BME280;1809;48.470;9.226;2023-06-22T10:05:28;-17069.50;;;32.47;100.00
3590;BME280;1809;48.470;9.226;2023-06-22T10:07:53;-17072.41;;;32.58;100.00
3590;BME280;1809;48.470;9.226;2023-06-22T10:10:19;-17062.28;;;32.21;100.00
3590;BME280;1809;48.470;9.226;2023-06-22T10:12:55;-17047.31;;;31.66;100.00
3590;BME280;1809;48.470;9.226;2023-06-22T10:15:20;-17051.75;;;31.82;100.00
3590;BME280;1809;48.470;9.226;2023-06-22T10:17:46;-17051.75;;;31.82;100.00
3590;BME280;1809;48.470;9.226;2023-06-22T10:20:11;-17068.25;;;32.42;100.00
3590;BME280;1809;48.470;9.226;2023-06-22T10:22:42;-17066.16;;;32.35;100.00
3590;BME280;1809;48.470;9.226;2023-06-22T10:25:09;-17067.41;;;32.39;100.00
3590;BME280;1809;48.470;9.226;2023-06-22T10:27:34;-17072.97;;;32.60;100.00
3590;BME280;1809;48.470;9.226;2023-06-22T10:30:00;-17080.88;;;32.88;100.00
3590;BME280;1809;48.470;9.226;2023-06-22T10:32:26;-17076.72;;;32.73;100.00
3590;BME280;1809;48.470;9.226;2023-06-22T10:34:53;-17081.16;;;32.89;100.00
3590;BME280;1809;48.470;9.226;2023-06-22T10:37:19;-17084.19;;;33.00;100.00
3590;BME280;1809;48.470;9.226;2023-06-22T10:39:44;-17092.22;;;33.30;100.00
3590;BME280;1809;48.470;9.226;2023-06-22T10:42:09;-17093.91;;;33.36;100.00
3590;BME280;1809;48.470;9.226;2023-06-22T10:44:34;-17092.22;;;33.30;100.00
3590;BME280;1809;48.470;9.226;2023-06-22T10:47:00;-17096.38;;;33.45;100.00
3590;BME280;1809;48.470;9.226;2023-06-22T10:49:25;-17082.13;;;32.93;100.00
3590;BME280;1809;48.470;9.226;2023-06-22T10:51:50;-17098.31;;;33.52;100.00
3590;BME280;1809;48.470;9.226;2023-06-22T10:54:16;-17103.03;;;33.69;100.00
3590;BME280;1809;48.470;9.226;2023-06-22T10:56:43;-17106.66;;;33.82;100.00
3590;BME280;1809;48.470;9.226;2023-06-22T10:59:08;-17125.88;;;34.52;100.00
3590;BME280;1809;48.470;9.226;2023-06-22T11:01:34;-17144.31;;;35.20;100.00
3590;BME280;1809;48.470;9.226;2023-06-22T11:03:59;-17151.78;;;35.47;100.00
3590;BME280;1809;48.470;9.226;2023-06-22T11:06:26;-17151.50;;;35.46;100.00
3590;BME280;1809;48.470;9.226;2023-06-22T11:08:51;-17130.47;;;34.69;100.00
3590;BME280;1809;48.470;9.226;2023-06-22T11:11:16;-17115.78;;;34.16;100.00
3590;BME280;1809;48.470;9.226;2023-06-22T11:13:43;-17113.28;;;34.06;100.00
3590;BME280;1809;48.470;9.226;2023-06-22T11:16:09;-17129.63;;;34.66;100.00
3590;BME280;1809;48.470;9.226;2023-06-22T11:18:34;-17139.47;;;35.02;100.00
3590;BME280;1809;48.470;9.226;2023-06-22T11:21:00;-17141.81;;;35.11;100.00
3590;BME280;1809;48.470;9.226;2023-06-22T11:23:25;-17160.50;;;35.79;100.00
3590;BME280;1809;48.470;9.226;2023-06-22T11:25:52;-17158.00;;;35.70;100.00
3590;BME280;1809;48.470;9.226;2023-06-22T11:28:17;-17159.53;;;35.75;100.00
3590;BME280;1809;48.470;9.226;2023-06-22T11:30:43;-17144.31;;;35.20;100.00
3590;BME280;1809;48.470;9.226;2023-06-22T11:33:08;-17143.34;;;35.16;100.00
3590;BME280;1809;48.470;9.226;2023-06-22T11:35:34;-17145.97;;;35.26;100.00
3590;BME280;1809;48.470;9.226;2023-06-22T11:37:59;-17153.97;;;35.55;100.00
3590;BME280;1809;48.470;9.226;2023-06-22T11:40:24;-17145.97;;;35.26;100.00
3590;BME280;1809;48.470;9.226;2023-06-22T11:42:50;-17135.44;;;34.87;100.00
3590;BME280;1809;48.470;9.226;2023-06-22T11:45:15;-17141.53;;;35.09;100.00
3590;BME280;1809;48.470;9.226;2023-06-22T11:47:42;-17154.97;;;35.58;100.00
3590;BME280;1809;48.470;9.226;2023-06-22T11:50:08;-17158.56;;;35.72;100.00
3590;BME280;1809;48.470;9.226;2023-06-22T11:52:34;-17149.84;;;35.40;100.00
3590;BME280;1809;48.470;9.226;2023-06-22T11:55:01;-17152.75;;;35.50;100.00
3590;BME280;1809;48.470;9.226;2023-06-22T11:57:28;-17158.97;;;35.73;100.00
3590;BME280;1809;48.470;9.226;2023-06-22T11:59:54;-17175.28;;;36.33;100.00
3590;BME280;1809;48.470;9.226;2023-06-22T12:02:19;-17173.91;;;36.28;100.00
3590;BME280;1809;48.470;9.226;2023-06-22T12:04:44;-17175.84;;;36.35;100.00
3590;BME280;1809;48.470;9.226;2023-06-22T12:07:10;-17175.28;;;36.33;100.00
3590;BME280;1809;48.470;9.226;2023-06-22T12:09:35;-17174.72;;;36.31;100.00
3590;BME280;1809;48.470;9.226;2023-06-22T12:12:00;-17162.00;;;35.84;100.00
3590;BME280;1809;48.470;9.226;2023-06-22T12:14:25;-17151.63;;;35.46;100.00
3590;BME280;1809;48.470;9.226;2023-06-22T12:16:51;-17141.53;;;35.09;100.00
3590;BME280;1809;48.470;9.226;2023-06-22T12:19:16;-17128.25;;;34.61;100.00
3590;BME280;1809;48.470;9.226;2023-06-22T12:21:41;-17118.00;;;34.24;100.00
3590;BME280;1809;48.470;9.226;2023-06-22T12:24:10;-17110.66;;;33.97;100.00
3590;BME280;1809;48.470;9.226;2023-06-22T12:26:35;-17092.22;;;33.30;100.00
3590;BME280;1809;48.470;9.226;2023-06-22T12:29:01;-17084.19;;;33.00;100.00
3590;BME280;1809;48.470;9.226;2023-06-22T12:31:26;-17081.97;;;32.92;100.00
3590;BME280;1809;48.470;9.226;2023-06-22T12:33:51;-17073.66;;;32.62;100.00
3590;BME280;1809;48.470;9.226;2023-06-22T12:36:17;-17067.56;;;32.40;100.00
3590;BME280;1809;48.470;9.226;2023-06-22T12:38:42;-17061.59;;;32.18;100.00
3590;BME280;1809;48.470;9.226;2023-06-22T12:41:07;-17061.72;;;32.19;100.00
3590;BME280;1809;48.470;9.226;2023-06-22T12:43:33;-17058.41;;;32.07;100.00
3590;BME280;1809;48.470;9.226;2023-06-22T12:45:58;-17055.22;;;31.95;100.00
3590;BME280;1809;48.470;9.226;2023-06-22T12:48:26;-17049.25;;;31.73;100.00
3590;BME280;1809;48.470;9.226;2023-06-22T12:50:51;-17056.47;;;32.00;100.00
3590;BME280;1809;48.470;9.226;2023-06-22T12:53:16;-17066.72;;;32.37;100.00
3590;BME280;1809;48.470;9.226;2023-06-22T12:55:42;-17075.19;;;32.68;100.00
3590;BME280;1809;48.470;9.226;2023-06-22T12:58:07;-17078.94;;;32.81;100.00
3590;BME280;1809;48.470;9.226;2023-06-22T13:00:32;-17081.69;;;32.91;100.00